Time;durP1;ratioP1;P1;durP2;ratioP2;P2;SDS_P1;SDS_P2;PMS_P1;PMS_P2;Temp;Humidity;BMP_temperature;BMP_pressure;BME280_temperature;BME280_humidity;BME280_pressure;Samples;Min_cycle;Max_cycle;Signal;HPM_P1;HPM_P2
2023/05/10 00:01:23;;;;;;;2.55;1.20;;;11.60;99.90;;;;;;5070007;28;20270;-71
2023/05/10 00:03:49;;;;;;;2.75;1.20;;;11.70;99.90;;;;;;5097290;28;20051;-70
2023/05/10 00:06:14;;;;;;;4.45;1.38;;;11.70;99.90;;;;;;5093026;28;20102;-71
2023/05/10 00:08:40;;;;;;;2.58;1.20;;;11.80;99.90;;;;;;5093837;27;20794;-71
2023/05/10 00:11:06;;;;;;;2.08;1.20;;;11.80;99.90;;;;;;5096215;28;20083;-71
2023/05/10 00:13:32;;;;;;;2.53;1.10;;;11.80;99.90;;;;;;5079282;28;20038;-71
2023/05/10 00:15:58;;;;;;;2.83;0.90;;;11.90;99.90;;;;;;5087896;28;20024;-71
2023/05/10 00:18:23;;;;;;;2.85;0.90;;;11.90;99.90;;;;;;5097276;28;20386;-70
2023/05/10 00:20:49;;;;;;;1.42;0.93;;;11.90;99.90;;;;;;5074622;28;20032;-70
2023/05/10 00:23:15;;;;;;;1.92;1.15;;;12.00;99.90;;;;;;5095323;28;20130;-70
2023/05/10 00:25:40;;;;;;;0.98;0.80;;;12.00;99.90;;;;;;5094311;28;20582;-70
2023/05/10 00:28:06;;;;;;;1.05;0.85;;;12.00;99.90;;;;;;5093981;28;20039;-71
2023/05/10 00:30:31;;;;;;;2.53;1.00;;;12.00;99.90;;;;;;5084680;28;20379;-70
2023/05/10 00:32:57;;;;;;;2.33;0.90;;;12.00;99.90;;;;;;5084234;28;20059;-70
2023/05/10 00:35:23;;;;;;;1.13;0.80;;;12.00;99.90;;;;;;5095934;28;20023;-70
2023/05/10 00:37:49;;;;;;;2.30;1.05;;;12.00;99.90;;;;;;5096901;28;20448;-70
2023/05/10 00:40:14;;;;;;;2.40;0.98;;;12.00;99.90;;;;;;5096269;28;20019;-71
2023/05/10 00:42:40;;;;;;;2.35;1.00;;;12.00;99.90;;;;;;5088371;28;20020;-70
2023/05/10 00:45:07;;;;;;;1.02;0.73;;;12.00;99.90;;;;;;5085531;28;20103;-71
2023/05/10 00:47:32;;;;;;;2.35;0.93;;;12.00;99.90;;;;;;5096345;28;20514;-70
2023/05/10 00:50:00;;;;;;;2.70;1.27;;;12.00;99.90;;;;;;5095181;28;20024;-71
2023/05/10 00:52:26;;;;;;;3.63;1.10;;;12.00;99.90;;;;;;5111965;28;20037;-70
2023/05/10 00:54:53;;;;;;;2.05;1.05;;;11.90;99.90;;;;;;5095464;28;20521;-71
2023/05/10 00:57:19;;;;;;;2.35;0.90;;;11.90;99.90;;;;;;5078339;28;20477;-70
2023/05/10 00:59:45;;;;;;;1.73;0.88;;;11.80;99.90;;;;;;5110936;28;20111;-70
2023/05/10 01:02:11;;;;;;;1.58;1.10;;;11.70;99.90;;;;;;5076050;28;20130;-71
2023/05/10 01:04:38;;;;;;;1.73;1.00;;;11.70;99.90;;;;;;5065342;28;20044;-71
2023/05/10 01:07:04;;;;;;;3.85;1.10;;;11.70;99.90;;;;;;5109855;28;20031;-71
2023/05/10 01:09:29;;;;;;;3.90;1.30;;;11.70;99.90;;;;;;5078045;28;20111;-71
2023/05/10 01:11:56;;;;;;;4.25;1.60;;;11.70;99.90;;;;;;5078864;28;20354;-70
2023/05/10 01:14:22;;;;;;;2.53;1.35;;;11.70;99.90;;;;;;5071809;28;20032;-70
2023/05/10 01:16:49;;;;;;;2.85;1.58;;;11.70;99.90;;;;;;5061660;28;20556;-70
2023/05/10 01:19:24;;;;;;;4.00;1.90;;;11.70;99.90;;;;;;5095321;28;20031;-70
2023/05/10 01:22:02;;;;;;;2.88;1.52;;;11.70;99.90;;;;;;5114322;27;20042;-71
2023/05/10 01:25:08;;;;;;;2.75;1.60;;;11.80;99.90;;;;;;5100094;27;20091;-71
2023/05/10 01:27:58;;;;;;;3.22;1.45;;;11.80;99.90;;;;;;5100522;28;20034;-70
2023/05/10 01:31:17;;;;;;;2.63;1.85;;;11.80;99.90;;;;;;5092361;28;20027;-71
2023/05/10 01:33:58;;;;;;;2.45;1.55;;;11.80;99.90;;;;;;5084705;28;20426;-70
2023/05/10 01:36:39;;;;;;;4.45;1.60;;;11.80;99.90;;;;;;5079760;28;20501;-71
2023/05/10 01:39:43;;;;;;;3.83;1.90;;;11.80;99.90;;;;;;5099397;27;20038;-71
2023/05/10 01:42:14;;;;;;;5.22;1.60;;;11.90;99.90;;;;;;5121873;27;20346;-70
2023/05/10 01:45:01;;;;;;;2.93;1.57;;;11.80;99.90;;;;;;5081910;28;20031;-70
2023/05/10 01:47:41;;;;;;;3.90;2.20;;;11.90;99.90;;;;;;5083640;28;20062;-71
2023/05/10 01:50:14;;;;;;;2.05;1.55;;;11.90;99.90;;;;;;5087762;28;20027;-70
2023/05/10 01:52:49;;;;;;;3.03;1.65;;;11.80;99.90;;;;;;5102068;28;20067;-71
2023/05/10 01:55:18;;;;;;;1.98;1.60;;;11.90;99.90;;;;;;5116703;27;20444;-71
2023/05/10 01:57:46;;;;;;;6.00;2.40;;;11.90;99.90;;;;;;5122351;27;20250;-70
2023/05/10 02:00:13;;;;;;;4.40;1.88;;;11.90;99.90;;;;;;5105070;27;20111;-71
2023/05/10 02:02:45;;;;;;;4.10;1.63;;;12.00;99.90;;;;;;5091615;28;20024;-70
2023/05/10 02:05:13;;;;;;;4.07;1.70;;;12.00;99.90;;;;;;5099898;28;20077;-70
2023/05/10 02:07:39;;;;;;;4.63;1.80;;;12.00;99.90;;;;;;5100723;28;20031;-70
2023/05/10 02:10:07;;;;;;;2.90;1.50;;;12.00;99.90;;;;;;5081993;28;20023;-70
2023/05/10 02:12:39;;;;;;;5.75;1.90;;;11.90;99.90;;;;;;5081554;28;20048;-70
2023/05/10 02:15:06;;;;;;;2.95;1.42;;;12.00;99.90;;;;;;5083635;28;20066;-71
2023/05/10 02:17:34;;;;;;;7.63;2.10;;;12.00;99.90;;;;;;5099592;28;20063;-71
2023/05/10 02:20:01;;;;;;;3.08;1.50;;;11.90;99.90;;;;;;5098490;28;20023;-71
2023/05/10 02:22:27;;;;;;;4.00;1.70;;;12.00;99.90;;;;;;5103345;27;20093;-70
2023/05/10 02:24:58;;;;;;;3.25;1.75;;;12.00;99.90;;;;;;5099872;28;20073;-70
2023/05/10 02:27:24;;;;;;;4.25;1.80;;;12.00;99.90;;;;;;5085862;28;20086;-71
2023/05/10 02:29:51;;;;;;;3.38;1.80;;;12.00;99.90;;;;;;5097816;28;20023;-71
2023/05/10 02:32:17;;;;;;;5.13;1.70;;;12.00;99.90;;;;;;5101080;27;20036;-71
2023/05/10 02:34:45;;;;;;;2.92;1.58;;;12.00;99.90;;;;;;5098207;28;20491;-71
2023/05/10 02:37:14;;;;;;;1.83;1.52;;;12.00;99.90;;;;;;5092122;28;20040;-71
2023/05/10 02:39:43;;;;;;;2.53;1.60;;;12.00;99.90;;;;;;5115942;27;20023;-71
2023/05/10 02:42:18;;;;;;;4.35;1.88;;;11.90;99.90;;;;;;5083795;28;20459;-71
2023/05/10 02:44:47;;;;;;;2.60;1.60;;;11.90;99.90;;;;;;5097376;28;20036;-71
2023/05/10 02:47:12;;;;;;;5.70;1.85;;;12.00;99.90;;;;;;5089152;28;20252;-71
2023/05/10 02:49:38;;;;;;;4.68;2.10;;;11.90;99.90;;;;;;5090959;28;20562;-70
2023/05/10 02:52:06;;;;;;;4.60;2.42;;;11.90;99.90;;;;;;5078910;28;20043;-70
2023/05/10 02:54:39;;;;;;;4.38;2.10;;;11.90;99.90;;;;;;5091812;27;20092;-70
2023/05/10 02:57:06;;;;;;;5.63;2.70;;;11.80;99.90;;;;;;5122405;27;20789;-70
2023/05/10 02:59:32;;;;;;;4.90;2.30;;;11.80;99.90;;;;;;5112342;27;20046;-70
2023/05/10 03:02:00;;;;;;;3.60;2.40;;;11.80;99.90;;;;;;5101096;27;20447;-70
2023/05/10 03:04:25;;;;;;;6.78;2.47;;;11.80;99.90;;;;;;5090373;28;20641;-70
2023/05/10 03:06:51;;;;;;;3.35;2.13;;;11.80;99.90;;;;;;5094508;28;20337;-70
2023/05/10 03:09:17;;;;;;;4.43;2.40;;;11.80;99.90;;;;;;5097404;28;20028;-70
2023/05/10 03:12:01;;;;;;;6.22;2.35;;;11.80;99.90;;;;;;5096860;28;20476;-70
2023/05/10 03:14:30;;;;;;;3.53;1.98;;;11.80;99.90;;;;;;5078640;28;20028;-70
2023/05/10 03:17:11;;;;;;;7.97;2.72;;;11.80;99.90;;;;;;5090441;27;20032;-70
2023/05/10 03:20:04;;;;;;;6.80;2.65;;;11.80;99.90;;;;;;5080491;28;20028;-70
2023/05/10 03:22:36;;;;;;;6.35;2.78;;;11.80;99.90;;;;;;5084418;28;20031;-70
2023/05/10 03:25:05;;;;;;;5.88;3.05;;;11.90;99.90;;;;;;5114892;27;20514;-70
2023/05/10 03:27:32;;;;;;;3.83;2.50;;;11.90;99.90;;;;;;5097169;28;20028;-70
2023/05/10 03:29:58;;;;;;;8.02;2.85;;;11.90;99.90;;;;;;5079687;28;20035;-70
2023/05/10 03:32:24;;;;;;;5.00;2.70;;;11.90;99.90;;;;;;5093821;27;20546;-70
2023/05/10 03:34:49;;;;;;;7.03;3.08;;;11.90;99.90;;;;;;5087888;28;20067;-70
2023/05/10 03:37:15;;;;;;;3.58;2.70;;;12.00;99.90;;;;;;5097474;28;20027;-70
2023/05/10 03:39:41;;;;;;;4.75;3.00;;;11.90;99.90;;;;;;5097629;28;20394;-70
2023/05/10 03:42:06;;;;;;;11.07;3.30;;;11.90;99.90;;;;;;5097951;28;20036;-70
2023/05/10 03:44:33;;;;;;;5.43;2.97;;;11.90;99.90;;;;;;5078162;28;20027;-70
2023/05/10 03:46:59;;;;;;;6.82;2.97;;;11.90;99.90;;;;;;5095093;27;20498;-70
2023/05/10 03:49:24;;;;;;;6.65;3.63;;;11.90;99.90;;;;;;5080826;28;20331;-70
2023/05/10 03:51:50;;;;;;;10.00;3.28;;;11.90;99.90;;;;;;5083220;28;20410;-69
2023/05/10 03:54:16;;;;;;;6.20;3.08;;;11.90;99.90;;;;;;5097956;28;20019;-71
2023/05/10 03:56:41;;;;;;;9.10;3.78;;;11.80;99.90;;;;;;5081896;28;20637;-70
2023/05/10 03:59:08;;;;;;;5.57;3.33;;;11.80;99.90;;;;;;5088476;28;20077;-70
2023/05/10 04:01:34;;;;;;;9.80;3.65;;;11.80;99.90;;;;;;5079536;28;20031;-70
2023/05/10 04:04:00;;;;;;;7.97;3.78;;;11.80;99.90;;;;;;5082102;28;20192;-70
2023/05/10 04:06:26;;;;;;;10.10;4.00;;;11.80;99.90;;;;;;5089507;28;20101;-70
2023/05/10 04:08:51;;;;;;;5.72;3.65;;;11.80;99.90;;;;;;5087033;28;20042;-71
2023/05/10 04:11:17;;;;;;;6.55;4.03;;;11.80;99.90;;;;;;5079023;28;20035;-71
2023/05/10 04:13:43;;;;;;;6.32;3.60;;;11.80;99.90;;;;;;5079784;28;20027;-70
2023/05/10 04:16:08;;;;;;;7.68;4.07;;;11.90;99.90;;;;;;5081950;28;20019;-70
2023/05/10 04:18:34;;;;;;;7.78;4.18;;;11.80;99.90;;;;;;5080022;28;20233;-70
2023/05/10 04:21:00;;;;;;;9.15;4.20;;;11.80;99.90;;;;;;5085068;28;20118;-70
2023/05/10 04:23:27;;;;;;;9.00;4.68;;;11.80;99.90;;;;;;5106780;28;20554;-71
2023/05/10 04:25:58;;;;;;;7.70;4.47;;;11.80;99.90;;;;;;5096901;28;20324;-70
2023/05/10 04:28:24;;;;;;;8.13;4.78;;;11.80;99.90;;;;;;5113780;28;20031;-70
2023/05/10 04:30:49;;;;;;;8.85;4.55;;;11.80;99.90;;;;;;5077079;28;20042;-70
2023/05/10 04:33:15;;;;;;;12.55;4.78;;;11.70;99.90;;;;;;5069514;28;20032;-70
2023/05/10 04:35:41;;;;;;;10.90;4.57;;;11.70;99.90;;;;;;5091500;28;20405;-70
2023/05/10 04:38:06;;;;;;;10.27;4.15;;;11.70;99.90;;;;;;5095900;28;20032;-70
2023/05/10 04:40:32;;;;;;;8.95;4.32;;;11.60;99.90;;;;;;5095096;28;20415;-70
2023/05/10 04:42:58;;;;;;;13.73;6.10;;;11.60;99.90;;;;;;5060026;28;20060;-70
2023/05/10 04:45:23;;;;;;;11.50;4.80;;;11.60;99.90;;;;;;5096362;28;20055;-70
2023/05/10 04:47:49;;;;;;;7.80;4.45;;;11.70;99.90;;;;;;5093107;28;20023;-70
2023/05/10 04:50:15;;;;;;;12.40;5.60;;;11.70;99.90;;;;;;5080804;28;20088;-70
2023/05/10 04:52:40;;;;;;;12.07;5.13;;;11.70;99.90;;;;;;5096621;28;20285;-71
2023/05/10 04:55:09;;;;;;;13.70;5.45;;;11.70;99.90;;;;;;5095152;28;20272;-70
2023/05/10 04:57:34;;;;;;;12.32;5.60;;;11.80;99.90;;;;;;5100507;28;20019;-71
2023/05/10 05:00:00;;;;;;;10.77;4.88;;;11.80;99.90;;;;;;5091715;28;20430;-70
2023/05/10 05:02:26;;;;;;;9.23;4.82;;;11.80;99.90;;;;;;5094718;28;20028;-71
2023/05/10 05:04:51;;;;;;;9.20;5.35;;;11.80;99.90;;;;;;5095303;27;20960;-70
2023/05/10 05:07:17;;;;;;;10.40;4.72;;;11.80;99.90;;;;;;5097146;28;20835;-70
2023/05/10 05:09:43;;;;;;;12.98;4.93;;;11.90;99.90;;;;;;5097615;28;20080;-71
2023/05/10 05:12:13;;;;;;;12.27;5.07;;;11.80;99.90;;;;;;5099616;28;20054;-71
2023/05/10 05:14:39;;;;;;;12.50;5.65;;;11.90;99.90;;;;;;5075740;28;20379;-70
2023/05/10 05:17:05;;;;;;;9.10;4.93;;;12.00;99.90;;;;;;5094491;28;20039;-70
2023/05/10 05:19:31;;;;;;;15.73;6.13;;;12.00;99.90;;;;;;5093347;27;20487;-70
2023/05/10 05:21:57;;;;;;;8.88;5.53;;;12.00;99.90;;;;;;5099556;27;20035;-70
2023/05/10 05:24:23;;;;;;;12.50;5.38;;;12.10;99.90;;;;;;5085881;27;20024;-69
2023/05/10 05:26:48;;;;;;;16.30;5.78;;;12.10;99.90;;;;;;5112127;27;20501;-70
2023/05/10 05:29:14;;;;;;;14.90;5.85;;;12.10;99.90;;;;;;5086043;28;20103;-70
2023/05/10 05:31:39;;;;;;;11.85;5.50;;;12.20;99.90;;;;;;5090930;28;20114;-70
2023/05/10 05:34:05;;;;;;;10.82;5.30;;;12.20;99.90;;;;;;5085544;28;20391;-71
2023/05/10 05:36:31;;;;;;;9.82;4.78;;;12.30;99.90;;;;;;5076553;28;20028;-71
2023/05/10 05:38:57;;;;;;;10.52;5.00;;;12.40;99.90;;;;;;5092242;27;20035;-70
2023/05/10 05:41:24;;;;;;;10.02;5.35;;;12.30;99.90;;;;;;5071318;28;20043;-70
2023/05/10 05:43:50;;;;;;;14.57;5.05;;;12.30;99.90;;;;;;5096710;28;20399;-70
2023/05/10 05:46:15;;;;;;;12.02;5.00;;;12.20;99.90;;;;;;5096750;28;20039;-70
2023/05/10 05:48:41;;;;;;;12.13;4.75;;;12.10;99.90;;;;;;5094387;28;20127;-70
2023/05/10 05:51:06;;;;;;;11.38;4.72;;;12.00;99.90;;;;;;5091113;28;20055;-70
2023/05/10 05:53:32;;;;;;;10.88;4.55;;;11.90;99.90;;;;;;5100440;27;20086;-70
2023/05/10 05:55:58;;;;;;;9.98;4.30;;;11.90;99.90;;;;;;5100913;27;20100;-70
2023/05/10 05:58:25;;;;;;;9.32;4.70;;;11.90;99.90;;;;;;5097003;28;20058;-70
2023/05/10 06:00:54;;;;;;;9.80;4.40;;;11.90;99.90;;;;;;5076642;28;20513;-70
2023/05/10 06:03:20;;;;;;;12.32;4.60;;;11.90;99.90;;;;;;5068912;28;20028;-70
2023/05/10 06:05:45;;;;;;;10.95;4.90;;;12.00;99.90;;;;;;5078883;28;20564;-70
2023/05/10 06:08:11;;;;;;;27.92;14.55;;;12.00;99.90;;;;;;5094541;27;20649;-70
2023/05/10 06:10:37;;;;;;;11.73;4.57;;;12.10;99.90;;;;;;5091685;27;20031;-70
2023/05/10 06:13:02;;;;;;;11.07;4.38;;;12.20;99.90;;;;;;5095974;28;20035;-70
2023/05/10 06:15:28;;;;;;;11.05;4.68;;;12.40;99.90;;;;;;5096004;27;20063;-70
2023/05/10 06:17:54;;;;;;;12.50;4.70;;;12.50;99.90;;;;;;5092205;28;20042;-70
2023/05/10 06:20:20;;;;;;;12.23;4.32;;;12.60;99.90;;;;;;5094546;27;20139;-70
2023/05/10 06:22:45;;;;;;;11.80;3.72;;;12.60;99.90;;;;;;5102584;27;20039;-71
2023/05/10 06:25:11;;;;;;;434.67;230.60;;;12.60;99.90;;;;;;5093645;27;20486;-71
2023/05/10 06:27:37;;;;;;;20.52;9.23;;;12.70;99.90;;;;;;5103500;27;20478;-70
2023/05/10 06:30:03;;;;;;;9.18;4.38;;;12.80;99.90;;;;;;5065907;28;20471;-70
2023/05/10 06:32:29;;;;;;;10.20;4.30;;;12.80;99.90;;;;;;5096535;27;20043;-71
2023/05/10 06:34:54;;;;;;;12.70;4.18;;;12.80;99.90;;;;;;5094157;28;20043;-70
2023/05/10 06:37:20;;;;;;;11.70;4.38;;;12.90;99.90;;;;;;5078525;28;20028;-70
2023/05/10 06:39:46;;;;;;;23.73;15.32;;;12.90;99.90;;;;;;5096728;28;20427;-70
2023/05/10 06:42:11;;;;;;;44.63;19.40;;;13.00;99.90;;;;;;5099719;28;20035;-70
2023/05/10 06:44:37;;;;;;;11.43;4.95;;;13.10;99.90;;;;;;5097760;28;20322;-70
2023/05/10 06:47:03;;;;;;;12.80;3.63;;;13.20;99.90;;;;;;5109615;27;20084;-71
2023/05/10 06:49:28;;;;;;;5.95;3.80;;;13.30;99.90;;;;;;5098848;28;20059;-71
2023/05/10 06:51:55;;;;;;;11.15;3.72;;;13.40;99.90;;;;;;5089891;28;20055;-70
2023/05/10 06:54:21;;;;;;;8.13;3.58;;;13.50;99.90;;;;;;5087413;27;20028;-71
2023/05/10 06:56:47;;;;;;;9.43;3.47;;;13.50;99.90;;;;;;5096156;27;20046;-71
2023/05/10 06:59:13;;;;;;;11.40;3.75;;;13.80;99.90;;;;;;5103444;27;20492;-70
2023/05/10 07:01:39;;;;;;;9.18;3.38;;;13.90;99.90;;;;;;5119477;27;20106;-70
2023/05/10 07:04:05;;;;;;;10.07;3.30;;;14.00;99.90;;;;;;5115474;27;20254;-70
2023/05/10 07:06:30;;;;;;;8.75;3.28;;;14.00;99.90;;;;;;5097513;28;20498;-71
2023/05/10 07:08:56;;;;;;;8.00;3.03;;;14.00;99.90;;;;;;5098071;27;20039;-70
2023/05/10 07:11:22;;;;;;;6.85;3.10;;;14.10;99.90;;;;;;5080042;28;20348;-70
2023/05/10 07:13:48;;;;;;;11.15;3.78;;;14.20;99.90;;;;;;5098816;28;20028;-70
2023/05/10 07:16:13;;;;;;;11.30;3.15;;;14.40;99.90;;;;;;5079576;28;20027;-70
2023/05/10 07:18:39;;;;;;;9.15;3.45;;;14.50;99.90;;;;;;5097700;27;20032;-70
2023/05/10 07:21:05;;;;;;;9.65;3.28;;;14.70;99.90;;;;;;5113428;27;20035;-70
2023/05/10 07:23:30;;;;;;;10.40;3.22;;;14.80;99.90;;;;;;5112810;27;20027;-71
2023/05/10 07:25:57;;;;;;;10.70;3.38;;;15.00;99.90;;;;;;5099038;28;20023;-70
2023/05/10 07:28:24;;;;;;;10.68;3.05;;;15.10;99.90;;;;;;5097595;27;21363;-71
2023/05/10 07:30:50;;;;;;;11.60;3.70;;;15.20;99.90;;;;;;5094757;28;20063;-71
2023/05/10 07:33:15;;;;;;;10.43;3.17;;;15.30;99.90;;;;;;5076993;28;20024;-70
2023/05/10 07:35:41;;;;;;;10.18;3.42;;;15.50;99.90;;;;;;5077481;28;20032;-70
2023/05/10 07:38:07;;;;;;;10.57;3.45;;;15.70;99.90;;;;;;5082007;28;20061;-70
2023/05/10 07:40:33;;;;;;;7.18;2.47;;;16.00;99.90;;;;;;5085538;28;21620;-71
2023/05/10 07:43:00;;;;;;;12.27;3.10;;;16.30;99.90;;;;;;5075661;27;20076;-71
2023/05/10 07:45:26;;;;;;;7.90;3.03;;;16.90;99.90;;;;;;5086990;28;20024;-70
2023/05/10 07:47:52;;;;;;;5.78;2.72;;;17.90;96.80;;;;;;5085498;28;20031;-71
2023/05/10 07:50:18;;;;;;;7.85;2.40;;;19.90;89.40;;;;;;5058885;28;20201;-71
2023/05/10 07:52:43;;;;;;;9.30;2.28;;;23.10;59.60;;;;;;5076157;28;20414;-70
2023/05/10 07:55:09;;;;;;;8.93;2.30;;;26.00;48.10;;;;;;5082216;28;20394;-71
2023/05/10 07:57:35;;;;;;;8.43;1.90;;;28.60;41.10;;;;;;5083614;28;20032;-71
2023/05/10 08:00:01;;;;;;;7.50;2.08;;;30.20;38.10;;;;;;5085693;28;20138;-71
2023/05/10 08:02:26;;;;;;;5.25;1.52;;;32.00;34.90;;;;;;5084799;28;20028;-70
2023/05/10 08:04:52;;;;;;;4.07;1.63;;;33.00;33.40;;;;;;5087953;28;20101;-71
2023/05/10 08:07:18;;;;;;;4.20;1.67;;;34.10;32.20;;;;;;5066823;28;20027;-71
2023/05/10 08:09:44;;;;;;;4.43;1.50;;;35.20;30.70;;;;;;5071852;28;20080;-71
2023/05/10 08:12:09;;;;;;;5.40;1.80;;;35.90;29.30;;;;;;5088221;28;20039;-71
2023/05/10 08:14:36;;;;;;;6.75;2.00;;;36.70;29.70;;;;;;5083452;28;20444;-70
2023/05/10 08:17:03;;;;;;;5.22;1.70;;;37.50;27.50;;;;;;5089759;27;20039;-71
2023/05/10 08:19:28;;;;;;;6.25;1.50;;;37.50;27.40;;;;;;5083360;28;20073;-71
2023/05/10 08:21:55;;;;;;;5.82;1.70;;;37.60;27.50;;;;;;5088407;28;20098;-71
2023/05/10 08:24:21;;;;;;;5.38;1.48;;;38.20;27.30;;;;;;5083296;28;20034;-71
2023/05/10 08:26:47;;;;;;;5.85;1.70;;;38.60;26.40;;;;;;5094068;28;20035;-71
2023/05/10 08:29:13;;;;;;;5.38;1.60;;;38.60;26.70;;;;;;5096579;28;20031;-70
2023/05/10 08:31:39;;;;;;;8.00;1.52;;;39.00;26.50;;;;;;5088329;28;20078;-71
2023/05/10 08:34:05;;;;;;;7.43;1.80;;;39.00;26.30;;;;;;5108302;27;20047;-71
2023/05/10 08:36:31;;;;;;;4.78;1.60;;;39.30;26.00;;;;;;5092418;27;20263;-71
2023/05/10 08:38:57;;;;;;;8.55;1.92;;;39.00;26.50;;;;;;5074946;28;20187;-71
2023/05/10 08:41:25;;;;;;;5.50;1.65;;;39.40;27.00;;;;;;5097197;28;20470;-70
2023/05/10 08:43:52;;;;;;;4.25;1.77;;;39.20;26.00;;;;;;5121448;27;20518;-71
2023/05/10 08:46:19;;;;;;;7.30;2.10;;;39.70;25.70;;;;;;5113156;27;20038;-71
2023/05/10 08:48:46;;;;;;;5.53;1.77;;;39.20;26.60;;;;;;5079269;28;20024;-71
2023/05/10 08:51:19;;;;;;;4.75;1.63;;;39.50;25.40;;;;;;5071116;28;20443;-71
2023/05/10 08:53:45;;;;;;;5.18;1.80;;;38.70;26.70;;;;;;5096434;28;20063;-71
2023/05/10 08:56:11;;;;;;;5.50;1.70;;;38.00;26.40;;;;;;5099902;27;20019;-71
2023/05/10 08:58:38;;;;;;;7.70;2.10;;;38.30;26.20;;;;;;5095346;27;20474;-71
2023/05/10 09:01:05;;;;;;;5.45;1.80;;;38.40;25.10;;;;;;5094408;28;20069;-71
2023/05/10 09:03:31;;;;;;;5.55;1.58;;;39.10;26.20;;;;;;5097474;28;20051;-70
2023/05/10 09:05:57;;;;;;;4.70;1.55;;;39.50;25.30;;;;;;5099236;28;20047;-71
2023/05/10 09:08:26;;;;;;;4.20;1.70;;;40.30;26.70;;;;;;5083683;28;20466;-71
2023/05/10 09:10:53;;;;;;;7.35;1.85;;;41.20;25.80;;;;;;5086477;28;20244;-71
2023/05/10 09:13:19;;;;;;;4.35;1.45;;;41.10;23.80;;;;;;5090753;27;20052;-71
2023/05/10 09:15:45;;;;;;;5.32;1.65;;;41.20;25.00;;;;;;5097839;27;20141;-73
2023/05/10 09:18:12;;;;;;;7.15;1.77;;;41.70;25.50;;;;;;5085706;27;20626;-71
2023/05/10 09:20:37;;;;;;;6.10;1.55;;;40.90;25.20;;;;;;5094454;27;20028;-70
2023/05/10 09:23:03;;;;;;;5.38;1.65;;;39.30;25.40;;;;;;5091721;28;20076;-71
2023/05/10 09:25:29;;;;;;;5.88;1.73;;;37.10;26.60;;;;;;5095365;28;20445;-71
2023/05/10 09:27:55;;;;;;;5.07;1.75;;;35.70;28.30;;;;;;5089289;28;20027;-71
2023/05/10 09:30:26;;;;;;;4.43;1.63;;;33.70;30.00;;;;;;5102217;27;20486;-71
2023/05/10 09:32:52;;;;;;;5.35;1.70;;;33.20;33.30;;;;;;5107043;27;20042;-71
2023/05/10 09:35:20;;;;;;;5.47;2.00;;;33.80;31.90;;;;;;5101330;27;20515;-71
2023/05/10 09:37:51;;;;;;;5.07;1.70;;;34.50;31.60;;;;;;5105391;27;20036;-70
2023/05/10 09:40:19;;;;;;;4.72;1.77;;;34.80;28.10;;;;;;5100141;27;20139;-71
2023/05/10 09:42:55;;;;;;;6.65;1.90;;;34.10;30.60;;;;;;5100091;27;20039;-71
2023/05/10 09:45:23;;;;;;;7.15;1.92;;;33.60;31.90;;;;;;5099626;28;20481;-70
2023/05/10 09:47:48;;;;;;;6.32;1.77;;;33.50;31.10;;;;;;5102043;27;20106;-70
2023/05/10 09:50:14;;;;;;;6.30;1.70;;;33.70;30.20;;;;;;5097096;27;20485;-71
2023/05/10 09:53:00;;;;;;;4.50;1.45;;;33.00;32.70;;;;;;5095382;27;20043;-71
2023/05/10 09:55:40;;;;;;;5.40;1.45;;;34.00;31.80;;;;;;5103309;27;20095;-71
2023/05/10 09:58:10;;;;;;;3.83;1.63;;;35.80;29.90;;;;;;5085967;28;20118;-70
2023/05/10 10:00:37;;;;;;;5.55;1.88;;;35.70;28.40;;;;;;5083208;28;20020;-71
2023/05/10 10:03:04;;;;;;;4.68;1.40;;;34.40;29.60;;;;;;5088928;28;20016;-71
2023/05/10 10:05:35;;;;;;;5.75;1.35;;;32.70;30.20;;;;;;5092011;28;20126;-71
2023/05/10 10:08:05;;;;;;;7.65;1.50;;;32.90;33.40;;;;;;5097623;27;20034;-71
2023/05/10 10:10:33;;;;;;;4.93;1.35;;;34.90;29.90;;;;;;5108331;27;20032;-71
2023/05/10 10:12:59;;;;;;;2.70;1.15;;;36.80;27.60;;;;;;5066393;28;20043;-71
2023/05/10 10:15:25;;;;;;;3.97;1.23;;;37.00;26.40;;;;;;5068119;28;20026;-71
2023/05/10 10:17:52;;;;;;;3.95;1.25;;;37.80;26.70;;;;;;5099169;27;20031;-70
2023/05/10 10:20:19;;;;;;;4.20;1.65;;;37.50;26.60;;;;;;5077375;27;20043;-71
2023/05/10 10:22:45;;;;;;;5.07;1.40;;;36.20;25.80;;;;;;5094752;28;20472;-71
2023/05/10 10:25:12;;;;;;;3.63;1.20;;;32.80;29.70;;;;;;5091055;28;20055;-70
2023/05/10 10:27:53;;;;;;;5.82;1.67;;;30.60;32.50;;;;;;5089324;28;20070;-70
2023/05/10 10:30:41;;;;;;;4.32;1.67;;;28.90;36.60;;;;;;4839260;28;10000563;-71
2023/05/10 10:33:22;;;;;;;4.80;1.27;;;28.70;39.50;;;;;;5094221;27;20254;-70
2023/05/10 10:35:47;;;;;;;;;;;30.30;33.00;;;;;;5092069;28;20035;-71
2023/05/10 10:38:13;;;;;;;4.05;1.33;;;30.80;32.50;;;;;;5089318;27;20024;-70
2023/05/10 10:40:40;;;;;;;4.43;1.20;;;29.90;34.70;;;;;;5068479;28;20031;-71
2023/05/10 10:43:26;;;;;;;3.20;1.25;;;28.70;36.30;;;;;;5071602;28;20198;-70
2023/05/10 10:46:14;;;;;;;3.22;1.10;;;26.90;39.00;;;;;;5094706;27;20561;-70
2023/05/10 10:49:09;;;;;;;5.95;1.20;;;25.40;40.80;;;;;;5062984;28;20044;-70
2023/05/10 10:51:39;;;;;;;3.30;1.27;;;23.90;43.80;;;;;;5077790;28;20525;-71
2023/05/10 10:54:11;;;;;;;4.18;1.45;;;23.60;46.20;;;;;;5079148;28;20159;-71
2023/05/10 10:56:37;;;;;;;2.83;1.30;;;23.80;46.50;;;;;;5072917;28;21095;-71
2023/05/10 10:59:03;;;;;;;3.20;1.15;;;26.00;45.60;;;;;;5080994;27;20028;-71
2023/05/10 11:01:36;;;;;;;3.88;1.23;;;29.50;37.70;;;;;;5086458;27;20027;-71
2023/05/10 11:04:04;;;;;;;3.42;1.20;;;33.00;33.60;;;;;;5083427;27;20472;-71
2023/05/10 11:06:34;;;;;;;5.47;1.05;;;34.50;29.60;;;;;;5075977;28;20032;-71
2023/05/10 11:09:10;;;;;;;4.90;1.10;;;35.90;27.90;;;;;;5059778;27;20086;-71
2023/05/10 11:11:47;;;;;;;4.68;1.00;;;37.00;27.00;;;;;;5083350;27;20042;-71
2023/05/10 11:14:13;;;;;;;3.85;0.93;;;37.50;25.60;;;;;;5083832;28;20063;-71
2023/05/10 11:16:43;;;;;;;2.90;0.93;;;37.80;26.90;;;;;;5081874;28;20246;-70
2023/05/10 11:19:11;;;;;;;4.30;0.90;;;38.40;25.90;;;;;;5064244;28;20730;-70
2023/05/10 11:21:53;;;;;;;3.65;0.98;;;37.90;24.20;;;;;;5086153;28;20035;-71
2023/05/10 11:24:26;;;;;;;4.35;1.10;;;37.60;26.60;;;;;;5086037;28;20028;-71
2023/05/10 11:26:53;;;;;;;2.55;0.80;;;36.70;27.70;;;;;;5082575;28;20054;-71
2023/05/10 11:29:19;;;;;;;3.70;0.90;;;35.10;28.10;;;;;;5066486;28;20111;-71
2023/05/10 11:31:47;;;;;;;2.63;0.85;;;33.70;29.60;;;;;;5085181;28;20019;-70
2023/05/10 11:34:24;;;;;;;6.28;1.13;;;32.70;29.80;;;;;;5085002;28;20047;-71
2023/05/10 11:36:54;;;;;;;2.58;0.73;;;31.50;30.20;;;;;;5072216;28;20114;-71
2023/05/10 11:39:21;;;;;;;2.83;0.90;;;30.30;32.20;;;;;;5083894;28;20059;-70
2023/05/10 11:41:50;;;;;;;3.85;0.95;;;28.90;31.80;;;;;;5083813;28;20081;-71
2023/05/10 11:44:16;;;;;;;4.25;1.10;;;27.50;37.30;;;;;;5087358;28;20032;-71
2023/05/10 11:46:41;;;;;;;4.18;1.10;;;26.70;38.00;;;;;;5084491;28;20032;-70
2023/05/10 11:49:07;;;;;;;3.60;1.17;;;26.00;39.20;;;;;;5083883;27;20023;-70
2023/05/10 11:51:36;;;;;;;5.03;1.10;;;25.20;40.30;;;;;;5084449;28;20101;-70
2023/05/10 11:54:07;;;;;;;4.93;1.20;;;24.70;43.20;;;;;;5087506;28;20051;-70
2023/05/10 11:56:33;;;;;;;5.55;1.15;;;24.20;41.20;;;;;;5085488;28;20074;-71
2023/05/10 11:59:01;;;;;;;4.20;1.23;;;24.00;45.90;;;;;;5070947;28;20118;-70
2023/05/10 12:01:28;;;;;;;3.38;1.17;;;23.80;46.60;;;;;;5083400;28;20034;-70
2023/05/10 12:03:58;;;;;;;5.53;1.60;;;23.60;44.40;;;;;;5082641;28;20077;-70
2023/05/10 12:06:36;;;;;;;6.60;1.40;;;23.40;45.20;;;;;;5087508;28;20051;-70
2023/05/10 12:09:07;;;;;;;6.15;1.67;;;23.30;45.80;;;;;;5086707;28;20061;-70
2023/05/10 12:11:37;;;;;;;3.97;1.40;;;23.00;48.50;;;;;;5087147;28;20062;-70
2023/05/10 12:14:05;;;;;;;5.22;1.55;;;23.00;52.50;;;;;;5084345;28;20033;-70
2023/05/10 12:16:31;;;;;;;8.55;2.10;;;23.20;51.10;;;;;;5085087;28;20482;-71
2023/05/10 12:18:58;;;;;;;6.03;1.85;;;23.90;50.00;;;;;;5103956;27;20024;-70
2023/05/10 12:21:24;;;;;;;5.75;2.03;;;25.00;61.10;;;;;;5085156;28;20043;-70
2023/05/10 12:23:58;;;;;;;8.05;1.90;;;25.60;46.60;;;;;;5083300;28;20035;-70
2023/05/10 12:26:26;;;;;;;9.70;2.03;;;25.70;41.70;;;;;;5087049;28;20058;-71
2023/05/10 12:28:52;;;;;;;9.65;1.98;;;24.60;43.30;;;;;;5088331;28;20030;-70
2023/05/10 12:31:18;;;;;;;8.32;1.77;;;24.30;45.40;;;;;;5082942;28;20058;-70
2023/05/10 12:33:45;;;;;;;9.30;2.20;;;24.00;49.40;;;;;;5090627;28;20461;-70
2023/05/10 12:36:15;;;;;;;12.45;2.35;;;24.10;50.20;;;;;;5072402;28;20027;-70
2023/05/10 12:38:43;;;;;;;9.33;2.30;;;24.10;50.00;;;;;;5094570;28;20511;-71
2023/05/10 12:43:37;;;;;;;9.13;2.00;;;25.30;49.80;;;;;;3639381;23;10000099;-77
2023/05/10 12:46:14;;;;;;;8.07;2.00;;;25.30;45.10;;;;;;5029629;28;20488;-78
2023/05/10 12:48:41;;;;;;;7.18;1.70;;;24.60;46.40;;;;;;5017060;28;20116;-77
2023/05/10 12:51:12;;;;;;;8.77;2.03;;;25.20;48.50;;;;;;5031653;28;20036;-78
2023/05/10 12:53:39;;;;;;;10.20;2.25;;;25.00;46.60;;;;;;5048401;28;20136;-76